createdAt,value
2022-12-27T04:02:43.331Z,7.40
2022-12-27T04:05:11.979Z,4.67
2022-12-27T04:07:39.251Z,10.60
2022-12-27T04:10:24.999Z,8.03
2022-12-27T04:13:10.818Z,9.13
2022-12-27T04:15:56.922Z,6.73
2022-12-27T04:18:42.534Z,4.00
2022-12-27T04:21:28.487Z,8.13
2022-12-27T04:24:14.370Z,11.10
2022-12-27T04:27:00.387Z,7.60
2022-12-27T04:29:45.997Z,10.57
2022-12-27T04:32:31.631Z,10.13
2022-12-27T04:34:58.851Z,10.97
2022-12-27T04:37:26.133Z,9.87
2022-12-27T04:40:12.208Z,25.70
2022-12-27T04:42:58.254Z,7.90
2022-12-27T04:45:44.056Z,12.77
2022-12-27T04:48:34.904Z,9.30
2022-12-27T04:51:20.873Z,5.30
2022-12-27T04:54:06.657Z,8.23
2022-12-27T04:56:33.964Z,9.80
2022-12-27T04:59:20.042Z,8.60
2022-12-27T05:02:05.764Z,7.80
2022-12-27T05:04:35.456Z,8.43
2022-12-27T05:07:24.633Z,7.57
2022-12-27T05:10:30.492Z,10.97
2022-12-27T05:13:16.168Z,8.20
2022-12-27T05:15:43.435Z,10.53
2022-12-27T05:18:10.719Z,9.80
2022-12-27T05:20:38.005Z,9.50
2022-12-27T05:23:23.711Z,6.53
2022-12-27T05:25:50.945Z,8.17
2022-12-27T05:28:18.135Z,9.30
2022-12-27T05:30:45.436Z,7.40
2022-12-27T05:33:12.766Z,10.83
2022-12-27T05:35:40.500Z,6.93
2022-12-27T05:38:08.061Z,4.77
2022-12-27T05:40:35.502Z,11.90
2022-12-27T05:43:03.513Z,8.50
2022-12-27T05:45:31.037Z,7.27
2022-12-27T05:47:59.966Z,10.97
2022-12-27T05:50:27.867Z,8.27
2022-12-27T05:52:55.872Z,4.80
2022-12-27T05:55:23.426Z,9.97
2022-12-27T05:57:50.630Z,7.73
2022-12-27T06:00:18.044Z,11.87
2022-12-27T06:02:45.476Z,8.70
2022-12-27T06:05:12.923Z,8.93
2022-12-27T06:07:40.274Z,9.03
2022-12-27T06:10:09.217Z,8.43
2022-12-27T06:12:36.839Z,8.57
2022-12-27T06:15:06.450Z,6.47
2022-12-27T06:17:34.299Z,5.93
2022-12-27T06:20:01.549Z,10.53
2022-12-27T06:22:28.789Z,5.20
2022-12-27T06:24:56.058Z,6.43
2022-12-27T06:27:23.276Z,4.43
2022-12-27T06:29:50.505Z,14.60
2022-12-27T06:32:17.819Z,6.60
2022-12-27T06:34:45.293Z,6.97
2022-12-27T06:37:12.707Z,4.23
2022-12-27T06:39:39.984Z,8.63
2022-12-27T06:42:07.240Z,10.83
2022-12-27T06:44:34.432Z,7.27
2022-12-27T06:47:01.836Z,7.67
2022-12-27T06:49:29.414Z,11.57
2022-12-27T06:51:59.751Z,5.73
2022-12-27T06:54:27.445Z,7.63
2022-12-27T06:56:56.248Z,7.40
2022-12-27T06:59:24.119Z,11.13
2022-12-27T07:01:51.516Z,6.33
2022-12-27T07:04:18.959Z,6.43
2022-12-27T07:06:46.246Z,8.47
2022-12-27T07:09:13.523Z,5.90
2022-12-27T07:11:40.780Z,7.03
2022-12-27T07:14:10.546Z,6.47
2022-12-27T07:16:37.895Z,4.47
2022-12-27T07:19:05.624Z,10.70
2022-12-27T07:21:32.866Z,7.50
2022-12-27T07:24:00.139Z,6.90
2022-12-27T07:26:30.293Z,12.73
2022-12-27T07:29:00.339Z,8.43
2022-12-27T07:31:31.093Z,9.07
2022-12-27T07:34:00.412Z,5.47
2022-12-27T07:36:35.607Z,7.37
2022-12-27T07:39:03.726Z,9.20
2022-12-27T07:41:31.037Z,8.90
2022-12-27T07:43:58.257Z,10.63
2022-12-27T07:46:26.756Z,12.07
2022-12-27T07:48:57.988Z,15.03
2022-12-27T07:51:26.463Z,13.27
2022-12-27T07:53:54.441Z,13.13
2022-12-27T07:56:26.449Z,12.07
2022-12-27T07:58:55.919Z,7.30
2022-12-27T08:01:24.948Z,6.73
2022-12-27T08:03:52.573Z,6.97
2022-12-27T08:06:27.373Z,8.83
2022-12-27T08:08:55.949Z,9.97
2022-12-27T08:11:23.318Z,14.20
2022-12-27T08:13:50.569Z,5.70
2022-12-27T08:16:23.349Z,12.50
2022-12-27T08:18:53.082Z,7.80
2022-12-27T08:21:20.656Z,10.70
2022-12-27T08:23:47.993Z,7.20
2022-12-27T08:26:15.587Z,11.97
2022-12-27T08:28:43.289Z,9.13
2022-12-27T08:31:12.515Z,8.93
2022-12-27T08:33:41.791Z,13.57
2022-12-27T08:36:29.091Z,12.37
2022-12-27T08:38:58.223Z,10.13
2022-12-27T08:41:25.614Z,9.90
2022-12-27T08:43:52.914Z,16.00
2022-12-27T08:46:20.228Z,15.60
2022-12-27T08:48:48.852Z,13.40
2022-12-27T08:51:24.806Z,13.87
2022-12-27T08:53:53.824Z,9.70
2022-12-27T08:56:21.070Z,10.43
2022-12-27T08:58:51.603Z,9.13
2022-12-27T09:01:19.150Z,6.90
2022-12-27T09:03:46.544Z,7.20
2022-12-27T09:06:22.917Z,13.73
2022-12-27T09:08:51.330Z,11.90
2022-12-27T09:11:21.457Z,9.93
2022-12-27T09:13:48.882Z,7.60
2022-12-27T09:16:24.641Z,7.43
2022-12-27T09:18:53.879Z,6.43
2022-12-27T09:21:22.236Z,10.53
2022-12-27T09:23:49.962Z,7.00
2022-12-27T09:26:26.663Z,7.00
2022-12-27T09:28:54.248Z,4.03
2022-12-27T09:31:22.734Z,7.40
2022-12-27T09:33:50.329Z,4.40
2022-12-27T09:36:24.127Z,6.23
2022-12-27T09:38:53.241Z,6.00
2022-12-27T09:42:11.688Z,5.63
2022-12-27T09:44:16.774Z,5.73
2022-12-27T09:46:47.677Z,5.10
2022-12-27T09:49:27.594Z,10.07
2022-12-27T09:52:02.638Z,13.73
2022-12-27T09:54:38.234Z,7.50
2022-12-27T09:57:32.893Z,3.87
2022-12-27T10:00:05.530Z,7.95
2022-12-27T10:02:34.962Z,5.90
2022-12-27T10:05:20.347Z,8.13
2022-12-27T10:08:07.132Z,8.98
2022-12-27T10:10:40.653Z,13.17
2022-12-27T10:13:26.500Z,10.50
2022-12-27T10:16:19.870Z,7.03
2022-12-27T10:19:01.978Z,8.30
2022-12-27T10:21:34.405Z,12.53
2022-12-27T10:24:23.434Z,7.23
2022-12-27T10:26:54.601Z,8.40
2022-12-27T10:29:24.492Z,4.35
2022-12-27T10:31:52.821Z,5.13
2022-12-27T10:34:26.968Z,10.80
2022-12-27T10:36:54.275Z,7.37
2022-12-27T10:39:29.811Z,7.13
2022-12-27T10:42:20.429Z,9.73
2022-12-27T10:44:47.696Z,12.33
2022-12-27T10:47:16.658Z,10.73
2022-12-27T10:50:11.428Z,9.47
2022-12-27T10:52:38.860Z,11.27
2022-12-27T10:55:06.394Z,9.33
2022-12-27T10:57:34.355Z,8.55
2022-12-27T11:00:13.676Z,11.40
2022-12-27T11:02:56.478Z,7.23
2022-12-27T11:05:31.913Z,16.60
2022-12-27T11:08:01.226Z,10.17
2022-12-27T11:10:33.356Z,10.97
2022-12-27T11:13:03.600Z,12.00
2022-12-27T11:15:40.801Z,8.87
2022-12-27T11:18:19.737Z,15.03
2022-12-27T11:20:51.620Z,11.37
2022-12-27T11:23:24.761Z,17.83
2022-12-27T11:25:56.163Z,13.90
2022-12-27T11:28:26.130Z,18.37
2022-12-27T11:30:59.559Z,15.30
2022-12-27T11:33:37.463Z,9.70
2022-12-27T11:36:06.192Z,10.17
2022-12-27T11:38:35.786Z,11.63
2022-12-27T11:41:03.312Z,7.63
2022-12-27T11:43:52.190Z,15.90
2022-12-27T11:46:37.181Z,12.30
2022-12-27T11:49:08.757Z,9.07
2022-12-27T11:51:51.007Z,11.90
2022-12-27T11:54:43.501Z,9.67
2022-12-27T11:57:32.020Z,9.90
2022-12-27T12:00:09.396Z,15.13
2022-12-27T12:02:39.516Z,9.10
2022-12-27T12:05:38.945Z,6.07
2022-12-27T12:08:24.089Z,12.83
2022-12-27T12:11:15.649Z,11.20
2022-12-27T12:14:04.639Z,8.10
2022-12-27T12:16:59.109Z,14.63
2022-12-27T12:19:53.814Z,11.20
2022-12-27T12:22:32.819Z,9.70
2022-12-27T12:25:42.806Z,11.87
2022-12-27T12:28:47.391Z,6.90
2022-12-27T12:31:21.090Z,10.03
2022-12-27T12:34:23.227Z,8.97
2022-12-27T12:36:53.484Z,8.43
2022-12-27T12:39:23.531Z,8.47
2022-12-27T12:42:21.403Z,11.27
2022-12-27T12:45:06.586Z,9.60
2022-12-27T12:47:51.912Z,5.07
2022-12-27T12:50:27.381Z,8.93
2022-12-27T12:53:05.778Z,4.67
2022-12-27T12:55:58.006Z,4.90
2022-12-27T12:58:43.181Z,6.10
2022-12-27T13:01:25.650Z,7.40
2022-12-27T13:04:07.740Z,5.30
2022-12-27T13:07:03.463Z,5.63
2022-12-27T13:09:30.647Z,13.00
2022-12-27T13:11:57.825Z,7.07
2022-12-27T13:14:46.682Z,8.00
2022-12-27T13:17:24.308Z,5.23
2022-12-27T13:20:15.227Z,7.40
2022-12-27T13:23:12.034Z,20.73
2022-12-27T13:25:49.107Z,5.07
2022-12-27T13:28:49.486Z,6.90
2022-12-27T13:31:31.967Z,7.90
2022-12-27T13:34:33.250Z,7.87
2022-12-27T13:37:08.915Z,6.77
2022-12-27T13:40:06.177Z,9.53
2022-12-27T13:43:20.788Z,8.57
2022-12-27T13:45:51.970Z,4.10
2022-12-27T13:48:27.413Z,4.10
2022-12-27T13:51:10.013Z,6.60
2022-12-27T13:53:40.322Z,3.73
2022-12-27T13:56:52.939Z,6.60
2022-12-27T13:59:28.896Z,7.33
2022-12-27T14:02:17.221Z,6.67
2022-12-27T14:05:05.741Z,4.57
2022-12-27T14:08:01.546Z,5.47
2022-12-27T14:10:53.925Z,5.17
2022-12-27T14:13:32.416Z,10.07
2022-12-27T14:16:48.555Z,9.47
2022-12-27T14:19:26.966Z,12.70
2022-12-27T14:22:03.063Z,6.47
2022-12-27T14:24:45.589Z,5.53
2022-12-27T14:27:30.896Z,6.17
2022-12-27T14:30:32.810Z,11.63
2022-12-27T14:33:27.861Z,4.47
2022-12-27T14:36:40.388Z,5.40
2022-12-27T14:39:14.917Z,4.10
2022-12-27T14:42:00.126Z,8.50
2022-12-27T14:44:36.095Z,6.87
2022-12-27T14:47:21.529Z,5.00
2022-12-27T14:50:30.224Z,8.60
2022-12-27T14:53:42.297Z,5.20
2022-12-27T14:56:47.782Z,8.23
2022-12-27T14:59:50.221Z,5.57
2022-12-27T15:03:02.589Z,8.20
2022-12-27T15:06:08.728Z,6.80
2022-12-27T15:09:07.455Z,7.03
2022-12-27T15:11:50.155Z,12.02
2022-12-27T15:14:39.165Z,8.63
2022-12-27T15:17:09.441Z,8.60
2022-12-27T15:20:16.490Z,6.40
2022-12-27T15:23:08.199Z,18.10
2022-12-27T15:25:43.393Z,5.43
2022-12-27T15:28:18.395Z,9.80
2022-12-27T15:31:12.540Z,9.97
2022-12-27T15:34:01.171Z,9.07
2022-12-27T15:36:49.069Z,14.10
2022-12-27T15:39:34.383Z,9.53
2022-12-27T15:42:30.390Z,9.40
2022-12-27T15:45:20.431Z,7.50
2022-12-27T15:48:02.444Z,11.63
2022-12-27T15:50:54.247Z,11.03
2022-12-27T15:53:36.901Z,10.27
2022-12-27T15:56:55.142Z,4.87
2022-12-27T15:59:46.871Z,13.03
2022-12-27T16:02:32.556Z,18.33
2022-12-27T16:05:41.067Z,6.37
2022-12-27T16:08:08.200Z,9.90
2022-12-27T16:10:41.420Z,11.70
2022-12-27T16:13:11.416Z,13.27
2022-12-27T16:15:45.257Z,17.17
2022-12-27T16:18:44.144Z,13.13
2022-12-27T16:21:20.182Z,10.83
2022-12-27T16:23:47.368Z,8.87
2022-12-27T16:26:21.846Z,11.57
2022-12-27T16:29:02.637Z,11.17
2022-12-27T16:31:37.955Z,18.60
2022-12-27T16:34:27.787Z,13.57
2022-12-27T16:36:57.961Z,12.70
2022-12-27T16:39:49.635Z,14.53
2022-12-27T16:42:27.042Z,17.53
2022-12-27T16:45:05.550Z,16.07
2022-12-27T16:47:57.552Z,11.17
2022-12-27T16:50:45.585Z,24.63
2022-12-27T16:53:33.603Z,21.70
2022-12-27T16:56:24.175Z,24.50
2022-12-27T16:58:52.017Z,26.57
2022-12-27T17:01:25.327Z,17.40
2022-12-27T17:04:02.647Z,19.93
2022-12-27T17:06:33.167Z,19.43
2022-12-27T17:09:10.455Z,21.23
2022-12-27T17:11:52.606Z,21.47
2022-12-27T17:14:27.988Z,25.77
2022-12-27T17:16:58.874Z,15.83
2022-12-27T17:19:30.644Z,16.87
2022-12-27T17:22:02.835Z,14.27
2022-12-27T17:24:30.290Z,10.13
2022-12-27T17:27:10.888Z,11.23
2022-12-27T17:30:00.187Z,13.13
2022-12-27T17:32:58.099Z,17.30
2022-12-27T17:35:53.473Z,14.43
2022-12-27T17:38:30.276Z,22.23
2022-12-27T17:41:16.164Z,13.70
2022-12-27T17:44:21.529Z,11.57
2022-12-27T17:47:16.191Z,9.70
2022-12-27T17:49:43.829Z,19.93
2022-12-27T17:52:36.478Z,17.63
2022-12-27T17:55:45.156Z,15.83
2022-12-27T17:58:16.201Z,26.00
2022-12-27T18:00:57.216Z,13.33
2022-12-27T18:03:32.336Z,18.10
2022-12-27T18:05:59.664Z,11.63
2022-12-27T18:08:30.274Z,19.10
2022-12-27T18:10:59.639Z,11.10
2022-12-27T18:13:31.482Z,14.10
2022-12-27T18:16:12.867Z,12.00
2022-12-27T18:18:45.106Z,21.90
2022-12-27T18:21:30.495Z,19.57
2022-12-27T18:23:58.905Z,20.13
2022-12-27T18:26:38.353Z,15.97
2022-12-27T18:29:06.346Z,14.07
2022-12-27T18:31:45.925Z,14.30
2022-12-27T18:34:30.381Z,11.30
2022-12-27T18:37:13.261Z,9.47
2022-12-27T18:39:46.751Z,16.90
2022-12-27T18:42:31.898Z,16.97
2022-12-27T18:45:08.598Z,13.77
2022-12-27T18:47:40.179Z,12.50
2022-12-27T18:50:18.067Z,14.97
2022-12-27T18:52:51.082Z,17.03
2022-12-27T18:55:27.394Z,13.67
2022-12-27T18:58:19.893Z,14.93
2022-12-27T19:00:51.055Z,16.60
2022-12-27T19:03:20.780Z,19.00
2022-12-27T19:06:12.687Z,17.00
2022-12-27T19:08:51.095Z,15.57
2022-12-27T19:11:37.088Z,14.07
2022-12-27T19:14:05.354Z,15.73
2022-12-27T19:16:35.743Z,15.40
2022-12-27T19:19:18.276Z,17.67
2022-12-27T19:21:45.716Z,23.50
2022-12-27T19:24:39.196Z,21.37
2022-12-27T19:27:23.166Z,22.10
2022-12-27T19:29:52.760Z,33.43
2022-12-27T19:32:26.870Z,29.67
2022-12-27T19:35:00.060Z,32.63
2022-12-27T19:37:29.573Z,32.67
2022-12-27T19:39:57.946Z,29.53
2022-12-27T19:42:35.048Z,25.10
2022-12-27T19:45:02.840Z,26.93
2022-12-27T19:47:31.446Z,28.50
2022-12-27T19:50:01.840Z,25.33
2022-12-27T19:52:29.255Z,27.53
2022-12-27T19:55:02.393Z,26.83
2022-12-27T19:57:29.776Z,23.30
2022-12-27T19:59:57.947Z,20.63
2022-12-27T20:02:25.348Z,20.57
2022-12-27T20:04:52.904Z,23.17
2022-12-27T20:07:24.943Z,21.53
2022-12-27T20:09:52.310Z,33.17
2022-12-27T20:12:25.513Z,21.20
2022-12-27T20:14:53.607Z,34.63
2022-12-27T20:17:20.945Z,26.30
2022-12-27T20:19:48.285Z,30.07
2022-12-27T20:22:15.484Z,29.57
2022-12-27T20:24:42.734Z,27.43
2022-12-27T20:27:10.119Z,22.63
2022-12-27T20:29:37.436Z,31.43
2022-12-27T20:32:04.861Z,24.27
2022-12-27T20:34:32.131Z,21.60
2022-12-27T20:37:00.284Z,24.40
2022-12-27T20:39:27.611Z,29.87
2022-12-27T20:41:56.203Z,25.43
2022-12-27T20:44:23.478Z,32.43
2022-12-27T20:46:50.855Z,27.77
2022-12-27T20:49:18.151Z,29.13
2022-12-27T20:51:45.438Z,26.50
2022-12-27T20:54:14.062Z,26.27
2022-12-27T20:56:41.436Z,29.87
2022-12-27T20:59:08.687Z,26.97
2022-12-27T21:01:36.371Z,31.13
2022-12-27T21:04:04.458Z,27.47
2022-12-27T21:06:31.693Z,32.90
2022-12-27T21:08:58.977Z,28.07
2022-12-27T21:11:31.925Z,29.60
2022-12-27T21:14:01.628Z,25.93
2022-12-27T21:16:31.406Z,24.33
2022-12-27T21:18:59.344Z,23.67
2022-12-27T21:21:28.735Z,22.70
2022-12-27T21:23:57.952Z,25.60
2022-12-27T21:26:36.839Z,24.50
2022-12-27T21:29:07.004Z,26.30
2022-12-27T21:31:35.917Z,27.43
2022-12-27T21:34:04.161Z,25.23
2022-12-27T21:36:34.119Z,26.53
2022-12-27T21:39:02.237Z,21.33
2022-12-27T21:41:33.144Z,26.37
2022-12-27T21:44:01.195Z,16.13
2022-12-27T21:46:36.803Z,15.60
2022-12-27T21:49:13.767Z,19.47
2022-12-27T21:51:42.483Z,18.07
2022-12-27T21:54:10.598Z,14.37
2022-12-27T21:56:39.173Z,19.70
2022-12-27T21:59:10.919Z,20.70
